Time;durP1;ratioP1;P1;durP2;ratioP2;P2;SDS_P1;SDS_P2;PMS_P1;PMS_P2;Temp;Humidity;BMP_temperature;BMP_pressure;BME280_temperature;BME280_humidity;BME280_pressure;Samples;Min_cycle;Max_cycle;Signal;HPM_P1;HPM_P2
2023/10/22 00:01:28;;;;;;;7.13;1.10;;;;;;;14.55;71.74;99485.72;5061298;28;20040;-66
2023/10/22 00:03:53;;;;;;;5.35;1.23;;;;;;;14.48;72.78;99509.47;5058842;28;20045;-67
2023/10/22 00:06:19;;;;;;;7.22;1.27;;;;;;;14.46;73.03;99516.47;5051746;28;20032;-66
2023/10/22 00:08:44;;;;;;;4.47;0.98;;;;;;;14.46;72.62;99522.53;5056917;28;20123;-67
2023/10/22 00:11:09;;;;;;;4.00;0.90;;;;;;;14.44;73.14;99528.72;5055686;28;20036;-66
2023/10/22 00:13:35;;;;;;;4.85;1.17;;;;;;;14.45;73.13;99531.25;5064111;28;20048;-67
2023/10/22 00:16:00;;;;;;;4.03;1.02;;;;;;;14.50;73.01;99523.25;5069014;28;20044;-66
2023/10/22 00:18:26;;;;;;;2.40;1.00;;;;;;;14.46;73.38;99535.53;5077981;28;20024;-66
2023/10/22 00:20:51;;;;;;;3.95;0.95;;;;;;;14.44;73.45;99534.75;5074617;28;20028;-66
2023/10/22 00:23:17;;;;;;;2.45;0.65;;;;;;;14.38;73.73;99539.38;5077400;28;20067;-65
2023/10/22 00:25:42;;;;;;;4.60;1.13;;;;;;;14.31;74.73;99543.09;5048919;28;20032;-65
2023/10/22 00:28:08;;;;;;;4.13;1.30;;;;;;;14.29;75.01;99555.34;5058139;28;20220;-65
2023/10/22 00:30:34;;;;;;;6.60;1.05;;;;;;;14.22;75.68;99559.94;5061473;28;20032;-66
2023/10/22 00:32:59;;;;;;;3.88;0.98;;;;;;;14.16;75.55;99561.97;5060073;28;20032;-66
2023/10/22 00:35:25;;;;;;;3.97;0.68;;;;;;;14.13;75.36;99561.19;5036943;28;20527;-66
2023/10/22 00:37:50;;;;;;;2.17;0.80;;;;;;;14.15;74.97;99552.47;5056295;28;20039;-66
2023/10/22 00:40:15;;;;;;;3.03;0.85;;;;;;;14.16;75.28;99547.22;5055857;28;20104;-67
2023/10/22 00:42:41;;;;;;;4.75;1.20;;;;;;;14.10;75.49;99563.06;5055766;28;20465;-66
2023/10/22 00:45:07;;;;;;;2.92;0.90;;;;;;;14.08;75.70;99572.69;5052516;28;20040;-66
2023/10/22 00:47:34;;;;;;;4.50;0.70;;;;;;;14.03;76.44;99587.63;5053861;28;20056;-66
2023/10/22 00:49:59;;;;;;;3.20;0.90;;;;;;;13.97;76.80;99591.31;5052254;28;20040;-66
2023/10/22 00:52:26;;;;;;;3.03;0.88;;;;;;;13.99;76.11;99575.66;5052842;28;20040;-66
2023/10/22 00:54:55;;;;;;;3.28;0.60;;;;;;;13.93;77.19;99594.09;5058093;28;20050;-66
2023/10/22 00:57:22;;;;;;;3.45;0.75;;;;;;;13.87;77.59;99599.53;5054410;28;20067;-63
2023/10/22 00:59:50;;;;;;;3.42;0.93;;;;;;;13.82;77.60;99599.72;5050433;28;20033;-63
2023/10/22 01:02:15;;;;;;;4.18;0.77;;;;;;;13.86;77.33;99596.09;5055730;28;20059;-63
2023/10/22 01:04:41;;;;;;;2.83;0.77;;;;;;;13.82;77.93;99610.13;5051668;28;20184;-63
2023/10/22 01:07:06;;;;;;;3.67;1.25;;;;;;;13.79;77.89;99606.78;5048055;28;20151;-63
2023/10/22 01:09:32;;;;;;;3.78;0.80;;;;;;;13.79;78.39;99611.97;5052663;28;20044;-63
2023/10/22 01:12:04;;;;;;;3.03;0.75;;;;;;;13.76;78.19;99604.31;5057039;28;20039;-63
2023/10/22 01:14:30;;;;;;;5.03;0.90;;;;;;;13.79;78.07;99607.63;5055101;28;20032;-67
2023/10/22 01:16:56;;;;;;;3.97;0.70;;;;;;;13.81;78.04;99615.34;5037077;28;20443;-66
2023/10/22 01:19:22;;;;;;;2.53;1.02;;;;;;;13.80;77.64;99605.91;5061746;28;20123;-66
2023/10/22 01:21:47;;;;;;;3.33;1.10;;;;;;;13.81;77.94;99613.59;5058102;28;20454;-67
2023/10/22 01:24:13;;;;;;;2.95;1.05;;;;;;;13.80;78.44;99611.91;5041889;28;20036;-67
2023/10/22 01:26:45;;;;;;;4.65;1.52;;;;;;;13.77;78.82;99617.22;5056155;28;20795;-67
2023/10/22 01:29:10;;;;;;;2.90;0.95;;;;;;;13.80;78.73;99621.47;5056554;28;20123;-66
2023/10/22 01:31:36;;;;;;;2.75;1.02;;;;;;;13.81;78.40;99625.75;5057072;28;20491;-67
2023/10/22 01:34:02;;;;;;;6.03;0.90;;;;;;;13.81;78.56;99633.53;5057509;28;20033;-67
2023/10/22 01:36:28;;;;;;;2.63;0.73;;;;;;;13.83;79.17;99637.75;5054427;28;20558;-66
2023/10/22 01:38:54;;;;;;;7.07;1.30;;;;;;;13.86;78.87;99634.22;5064845;28;20028;-66
2023/10/22 01:41:19;;;;;;;9.45;1.45;;;;;;;13.89;79.34;99634.09;5062288;28;20036;-66
2023/10/22 01:43:45;;;;;;;6.85;1.30;;;;;;;13.83;79.63;99647.34;5062071;28;20544;-66
2023/10/22 01:46:10;;;;;;;4.25;0.98;;;;;;;13.82;79.78;99638.69;5064384;28;20064;-66
2023/10/22 01:48:37;;;;;;;2.97;0.80;;;;;;;13.78;80.39;99646.66;5064447;28;20117;-66
2023/10/22 01:51:03;;;;;;;5.35;1.13;;;;;;;13.81;80.65;99649.13;5056459;28;20040;-66
2023/10/22 01:53:28;;;;;;;4.07;0.88;;;;;;;13.84;80.50;99638.59;5058576;28;20047;-67
2023/10/22 01:55:53;;;;;;;3.15;0.60;;;;;;;13.86;79.93;99635.03;5061799;28;20047;-65
2023/10/22 01:58:19;;;;;;;3.20;0.77;;;;;;;13.83;80.98;99650.75;5063608;28;20566;-66
2023/10/22 02:00:44;;;;;;;4.00;0.98;;;;;;;13.83;80.97;99655.94;5060631;28;20052;-66
2023/10/22 02:03:10;;;;;;;2.30;0.55;;;;;;;13.82;81.04;99637.84;5041326;28;20037;-66
2023/10/22 02:05:36;;;;;;;3.92;0.77;;;;;;;13.81;81.21;99652.56;5060399;28;20043;-67
2023/10/22 02:08:01;;;;;;;3.13;0.80;;;;;;;13.84;81.60;99652.44;5061283;28;20040;-66
2023/10/22 02:10:27;;;;;;;1.85;0.60;;;;;;;13.83;81.50;99637.75;5057501;28;20131;-66
2023/10/22 02:12:52;;;;;;;2.30;0.65;;;;;;;13.85;80.86;99646.34;5065886;28;20072;-66
2023/10/22 02:15:17;;;;;;;3.83;0.77;;;;;;;13.84;81.66;99662.00;5069952;28;20460;-66
2023/10/22 02:17:43;;;;;;;4.60;0.70;;;;;;;13.84;81.70;99662.00;5062902;28;20041;-67
2023/10/22 02:20:09;;;;;;;3.67;0.80;;;;;;;13.82;81.89;99658.63;5053615;28;20044;-66
2023/10/22 02:22:36;;;;;;;2.65;0.60;;;;;;;13.81;81.79;99670.75;5058195;28;20048;-70
2023/10/22 02:25:02;;;;;;;5.15;0.77;;;;;;;13.82;81.89;99664.66;5057332;28;20037;-63
2023/10/22 02:27:27;;;;;;;1.52;0.60;;;;;;;13.81;81.95;99670.75;5060695;28;20060;-63
2023/10/22 02:29:52;;;;;;;4.43;0.95;;;;;;;13.81;82.15;99668.16;5065233;28;20447;-63
2023/10/22 02:32:18;;;;;;;5.07;0.90;;;;;;;13.82;82.26;99669.00;5038617;28;20654;-63
2023/10/22 02:34:43;;;;;;;2.70;0.60;;;;;;;13.83;81.82;99665.50;5060033;28;20384;-63
2023/10/22 02:37:08;;;;;;;5.07;0.70;;;;;;;13.82;82.56;99671.59;5064346;28;20032;-63
2023/10/22 02:39:34;;;;;;;5.85;0.70;;;;;;;13.83;82.78;99675.91;5065360;28;20060;-63
2023/10/22 02:41:59;;;;;;;2.92;0.95;;;;;;;13.78;83.38;99686.44;5067477;28;20173;-64
2023/10/22 02:44:25;;;;;;;4.25;0.90;;;;;;;13.80;82.66;99676.03;5063216;28;20029;-64
2023/10/22 02:46:50;;;;;;;3.42;0.85;;;;;;;13.78;83.25;99678.66;5062157;28;20672;-64
2023/10/22 02:49:16;;;;;;;2.38;0.65;;;;;;;13.74;83.54;99684.03;5060038;28;20133;-64
2023/10/22 02:51:41;;;;;;;2.08;0.60;;;;;;;13.72;83.59;99691.88;5056353;28;20040;-64
2023/10/22 02:54:06;;;;;;;3.72;0.85;;;;;;;13.71;83.81;99691.97;5064512;28;20040;-64
2023/10/22 02:56:32;;;;;;;2.05;0.70;;;;;;;13.69;83.78;99692.00;5061530;28;20044;-64
2023/10/22 02:58:57;;;;;;;1.52;0.77;;;;;;;13.66;84.37;99706.84;5057758;28;20163;-64
2023/10/22 03:01:23;;;;;;;2.10;0.70;;;;;;;13.66;85.04;99709.44;5054957;28;20041;-64
2023/10/22 03:03:48;;;;;;;1.23;0.65;;;;;;;13.65;85.14;99710.38;5057397;28;20050;-64
2023/10/22 03:06:14;;;;;;;1.90;0.63;;;;;;;13.64;85.07;99703.47;5053337;28;20041;-64
2023/10/22 03:08:41;;;;;;;4.65;1.00;;;;;;;13.64;84.97;99713.84;5058586;28;20478;-64
2023/10/22 03:11:15;;;;;;;1.83;0.40;;;;;;;13.66;84.93;99706.84;5039804;28;21354;-64
2023/10/22 03:13:40;;;;;;;2.90;0.50;;;;;;;13.65;85.12;99712.97;5037671;28;20036;-64
2023/10/22 03:16:17;;;;;;;1.73;0.55;;;;;;;13.64;85.26;99724.25;5042914;28;20055;-64
2023/10/22 03:18:44;;;;;;;3.30;0.70;;;;;;;13.59;85.58;99719.22;5058261;28;20518;-64
2023/10/22 03:21:25;;;;;;;2.75;0.90;;;;;;;13.54;86.25;99724.56;5059487;28;20064;-64
2023/10/22 03:23:50;;;;;;;1.88;0.60;;;;;;;13.51;86.44;99727.28;5034076;28;20218;-65
2023/10/22 03:26:16;;;;;;;1.33;0.43;;;;;;;13.51;86.70;99726.44;5036124;28;20737;-64
2023/10/22 03:28:43;;;;;;;1.10;0.50;;;;;;;13.48;86.94;99732.59;5051011;28;20308;-64
2023/10/22 03:31:08;;;;;;;3.70;0.85;;;;;;;13.46;87.60;99729.22;5051209;28;20075;-70
2023/10/22 03:33:34;;;;;;;2.80;0.73;;;;;;;13.46;87.38;99733.56;5063524;28;20118;-70
2023/10/22 03:36:00;;;;;;;1.42;0.40;;;;;;;13.45;87.68;99735.31;5062102;28;20032;-70
2023/10/22 03:38:26;;;;;;;1.67;0.40;;;;;;;13.44;87.81;99733.59;5050353;28;20061;-70
2023/10/22 03:41:02;;;;;;;1.20;0.30;;;;;;;13.40;88.05;99737.22;5056650;28;20156;-70
2023/10/22 03:43:28;;;;;;;2.70;0.50;;;;;;;13.35;88.04;99741.75;5059590;28;20044;-70
2023/10/22 03:45:55;;;;;;;2.80;0.50;;;;;;;13.28;88.79;99742.84;5058029;28;20041;-70
2023/10/22 03:48:21;;;;;;;1.58;0.50;;;;;;;13.21;89.14;99749.16;5062157;28;20290;-70
2023/10/22 03:50:46;;;;;;;1.02;0.30;;;;;;;13.17;89.47;99754.50;5057768;28;20036;-70
2023/10/22 03:53:12;;;;;;;2.53;0.57;;;;;;;13.16;nan;99750.22;5057331;28;20036;-70
2023/10/22 03:55:37;;;;;;;2.13;0.35;;;;;;;13.14;89.82;99759.81;5052638;28;20045;-70
2023/10/22 03:58:03;;;;;;;2.25;0.52;;;;;;;13.09;90.86;99759.94;5059964;28;20040;-70
2023/10/22 04:00:28;;;;;;;2.90;0.43;;;;;;;13.05;90.66;99763.56;5066262;28;20749;-69
2023/10/22 04:02:54;;;;;;;1.30;0.43;;;;;;;13.02;91.07;99763.69;5058455;28;20564;-70
2023/10/22 04:05:19;;;;;;;2.38;0.73;;;;;;;12.96;91.33;99767.28;5053577;28;20493;-69
2023/10/22 04:07:44;;;;;;;2.70;0.30;;;;;;;12.94;91.96;99770.81;5063676;28;20036;-69
2023/10/22 04:10:10;;;;;;;0.55;0.35;;;;;;;12.92;92.24;99776.06;5048951;28;20786;-69
2023/10/22 04:12:36;;;;;;;2.70;0.57;;;;;;;12.90;92.31;99774.44;5053273;28;20044;-70
2023/10/22 04:15:03;;;;;;;1.02;0.60;;;;;;;12.86;93.13;99784.06;5057302;28;20384;-69
2023/10/22 04:17:28;;;;;;;0.65;0.40;;;;;;;12.85;93.21;99784.13;5057325;28;20028;-69
2023/10/22 04:19:54;;;;;;;0.22;0.22;;;;;;;12.87;93.29;99788.34;5064270;28;20098;-69
2023/10/22 04:22:20;;;;;;;2.58;0.40;;;;;;;12.89;93.46;99793.47;5053283;28;20052;-69
2023/10/22 04:24:45;;;;;;;3.22;0.32;;;;;;;12.86;93.30;99788.38;5058060;28;20041;-69
2023/10/22 04:27:11;;;;;;;2.33;0.40;;;;;;;12.84;93.69;99795.38;5054667;28;20040;-69
2023/10/22 04:29:37;;;;;;;0.75;0.20;;;;;;;12.81;93.97;99791.16;5060529;28;20044;-70
2023/10/22 04:32:02;;;;;;;1.73;0.40;;;;;;;12.80;94.49;99791.19;5055884;28;20992;-69
2023/10/22 04:34:28;;;;;;;0.93;0.32;;;;;;;12.74;94.84;99794.81;5055943;28;20037;-69
2023/10/22 04:36:54;;;;;;;0.50;0.30;;;;;;;12.70;94.85;99795.81;5057482;28;20043;-68
2023/10/22 04:39:19;;;;;;;0.57;0.30;;;;;;;12.65;95.41;99799.44;5058790;28;20049;-69
2023/10/22 04:41:45;;;;;;;1.00;0.52;;;;;;;12.62;95.55;99802.16;5058623;28;20028;-69
2023/10/22 04:44:10;;;;;;;1.10;0.38;;;;;;;12.57;95.85;99801.44;5055064;28;20178;-68
2023/10/22 04:46:36;;;;;;;1.13;0.30;;;;;;;12.52;96.19;99811.97;5057026;28;20131;-69
2023/10/22 04:49:01;;;;;;;1.90;0.38;;;;;;;12.46;96.45;99818.19;5056862;28;20151;-69
2023/10/22 04:51:27;;;;;;;0.93;0.30;;;;;;;12.38;97.06;99819.31;5061124;28;20030;-69
2023/10/22 04:53:52;;;;;;;0.80;0.22;;;;;;;12.35;97.17;99819.41;5061941;28;20032;-69
2023/10/22 04:56:17;;;;;;;0.57;0.30;;;;;;;12.32;97.63;99825.53;5057189;28;20040;-69
2023/10/22 04:58:43;;;;;;;3.03;0.50;;;;;;;12.29;98.09;99822.19;5040504;28;20161;-69
2023/10/22 05:01:09;;;;;;;1.27;0.50;;;;;;;12.27;98.37;99835.19;5055610;28;20541;-63
2023/10/22 05:03:34;;;;;;;2.35;0.85;;;;;;;12.22;98.78;99836.25;5039515;28;20128;-63
2023/10/22 05:06:06;;;;;;;1.83;0.50;;;;;;;12.26;99.09;99838.69;5057988;28;20047;-63
2023/10/22 05:08:34;;;;;;;1.45;0.55;;;;;;;12.32;99.03;99848.00;5059881;28;20049;-64
2023/10/22 05:10:59;;;;;;;1.23;0.55;;;;;;;12.35;98.76;99850.50;5055933;28;20040;-64
2023/10/22 05:13:25;;;;;;;0.65;0.40;;;;;;;12.38;98.89;99848.69;5058316;28;20046;-64
2023/10/22 05:15:52;;;;;;;1.08;0.40;;;;;;;12.43;98.67;99857.16;5056500;28;20041;-64
2023/10/22 05:18:17;;;;;;;1.48;0.35;;;;;;;12.43;98.62;99856.31;5040485;28;20086;-64
2023/10/22 05:20:43;;;;;;;0.22;0.22;;;;;;;12.39;98.70;99854.72;5057003;28;20033;-64
2023/10/22 05:23:08;;;;;;;1.77;0.50;;;;;;;12.34;98.92;99862.63;5052610;28;20584;-69
2023/10/22 05:25:34;;;;;;;2.15;0.50;;;;;;;12.28;99.33;99870.59;5056526;28;20079;-69
2023/10/22 05:27:59;;;;;;;1.20;0.40;;;;;;;12.27;99.43;99876.66;5053016;28;20047;-69
2023/10/22 05:30:24;;;;;;;2.05;0.73;;;;;;;12.24;99.80;99879.34;5057590;28;20035;-69
2023/10/22 05:32:50;;;;;;;0.95;0.40;;;;;;;12.20;100.00;99887.22;5062181;28;20519;-69
2023/10/22 05:35:16;;;;;;;1.35;0.50;;;;;;;12.20;100.00;99887.22;5057000;28;20925;-68
2023/10/22 05:37:43;;;;;;;0.93;0.40;;;;;;;12.18;100.00;99894.19;5054256;28;20028;-68
2023/10/22 05:40:11;;;;;;;1.13;0.38;;;;;;;12.17;100.00;99897.69;5056923;28;21048;-68
2023/10/22 05:42:36;;;;;;;1.75;0.43;;;;;;;12.16;100.00;99898.59;5062663;28;20093;-68
2023/10/22 05:45:04;;;;;;;0.38;0.32;;;;;;;12.14;100.00;99908.16;5058141;28;20032;-69
2023/10/22 05:47:31;;;;;;;1.10;0.40;;;;;;;12.12;100.00;99908.19;5061005;28;20052;-65
2023/10/22 05:49:58;;;;;;;1.30;0.30;;;;;;;12.15;100.00;99915.88;5060027;28;20059;-66
2023/10/22 05:52:25;;;;;;;2.63;0.73;;;;;;;12.19;100.00;99916.63;5055413;28;20328;-66
2023/10/22 05:54:53;;;;;;;1.80;0.43;;;;;;;12.21;100.00;99926.06;5060791;28;20094;-66
2023/10/22 05:57:21;;;;;;;1.42;0.43;;;;;;;12.24;100.00;99922.53;5056335;28;20024;-65
2023/10/22 05:59:46;;;;;;;2.55;0.80;;;;;;;12.29;100.00;99931.00;5056505;28;20038;-64
2023/10/22 06:02:12;;;;;;;1.58;0.77;;;;;;;12.33;100.00;99930.91;5056350;28;20032;-64
2023/10/22 06:04:37;;;;;;;4.47;1.15;;;;;;;12.38;100.00;99938.53;5050236;28;20032;-64
2023/10/22 06:07:03;;;;;;;0.82;0.55;;;;;;;12.42;100.00;99943.59;5062385;28;20064;-63
2023/10/22 06:09:28;;;;;;;1.95;0.93;;;;;;;12.46;100.00;99939.19;5054983;28;20118;-64
2023/10/22 06:11:53;;;;;;;2.15;0.63;;;;;;;12.50;100.00;99945.09;5060540;28;20032;-63
2023/10/22 06:14:19;;;;;;;2.45;0.50;;;;;;;12.52;100.00;99954.53;5049220;28;20198;-63
2023/10/22 06:16:44;;;;;;;1.23;0.50;;;;;;;12.54;100.00;99952.75;5059081;28;20048;-64
2023/10/22 06:19:09;;;;;;;0.95;0.60;;;;;;;12.59;100.00;99960.38;5054273;28;20511;-64
2023/10/22 06:21:35;;;;;;;1.35;1.02;;;;;;;12.63;100.00;99956.81;5060366;28;20735;-64
2023/10/22 06:24:01;;;;;;;1.67;0.98;;;;;;;12.66;100.00;99951.53;5059631;28;20721;-64
2023/10/22 06:26:26;;;;;;;3.67;2.45;;;;;;;12.71;100.00;99966.06;5059933;28;20028;-63
2023/10/22 06:28:51;;;;;;;7.18;4.00;;;;;;;12.75;100.00;99966.81;5058819;28;20080;-64
2023/10/22 06:31:17;;;;;;;6.93;4.60;;;;;;;12.76;100.00;99971.13;5056421;28;20072;-64
2023/10/22 06:33:43;;;;;;;4.28;2.70;;;;;;;12.80;99.85;99970.97;5054717;28;20070;-62
2023/10/22 06:36:21;;;;;;;4.97;2.90;;;;;;;12.85;99.68;99969.09;5056691;28;20025;-64
2023/10/22 06:38:47;;;;;;;3.30;2.05;;;;;;;12.90;99.83;99982.78;5054859;28;20478;-63
2023/10/22 06:41:23;;;;;;;4.00;1.92;;;;;;;12.95;99.73;99985.22;5056530;28;20042;-63
2023/10/22 06:43:49;;;;;;;3.45;1.63;;;;;;;12.99;99.32;99995.50;5052849;28;20044;-66
2023/10/22 06:46:17;;;;;;;2.75;1.77;;;;;;;13.02;98.75;99986.78;5052784;28;20060;-66
2023/10/22 06:48:43;;;;;;;2.88;1.30;;;;;;;13.08;98.81;99998.72;5038329;28;20048;-70
2023/10/22 06:51:10;;;;;;;1.08;0.80;;;;;;;13.11;98.68;100001.22;5036486;28;20036;-69
2023/10/22 06:53:36;;;;;;;1.38;0.88;;;;;;;13.16;98.48;100002.75;5056215;28;20040;-69
2023/10/22 06:56:03;;;;;;;0.85;0.70;;;;;;;13.23;98.28;100000.81;5051225;28;20530;-69
2023/10/22 06:58:28;;;;;;;1.25;0.60;;;;;;;13.28;97.77;99997.19;5051709;28;20028;-70
2023/10/22 07:01:03;;;;;;;0.65;0.52;;;;;;;13.34;97.64;100009.97;5055476;28;20121;-69
2023/10/22 07:03:28;;;;;;;;;;;;;;;13.36;97.10;100005.56;5054924;28;20029;-69
2023/10/22 07:05:53;;;;;;;0.50;0.30;;;;;;;13.41;97.04;100008.03;5054071;28;19932;-66
2023/10/22 07:08:19;;;;;;;0.43;0.30;;;;;;;13.44;96.34;100005.34;5056971;28;20639;-65
2023/10/22 07:10:44;;;;;;;0.65;0.30;;;;;;;13.49;95.88;100022.47;5056891;28;20533;-65
2023/10/22 07:13:09;;;;;;;1.05;0.32;;;;;;;13.53;96.17;100026.66;5054400;28;20105;-65
2023/10/22 07:15:35;;;;;;;0.60;0.38;;;;;;;13.55;96.25;100031.81;5052615;28;20044;-65
2023/10/22 07:18:00;;;;;;;0.30;0.20;;;;;;;13.55;95.84;100039.59;5056293;28;21066;-65
2023/10/22 07:20:25;;;;;;;0.43;0.30;;;;;;;13.57;95.93;100045.59;5057427;28;20035;-65
2023/10/22 07:22:51;;;;;;;0.52;0.50;;;;;;;13.57;95.40;100048.19;5054299;28;20044;-66
2023/10/22 07:25:16;;;;;;;0.93;0.52;;;;;;;13.61;94.65;100047.19;5062036;28;20032;-65
2023/10/22 07:27:41;;;;;;;0.38;0.30;;;;;;;13.64;95.18;100043.63;5059179;28;20041;-64
2023/10/22 07:30:08;;;;;;;1.25;0.70;;;;;;;13.65;95.42;100054.00;5053470;28;20088;-65
2023/10/22 07:32:33;;;;;;;2.38;0.57;;;;;;;13.67;95.57;100049.59;5049380;28;20134;-65
2023/10/22 07:34:59;;;;;;;2.95;0.63;;;;;;;13.70;95.30;100051.25;5055256;28;20132;-65
2023/10/22 07:37:24;;;;;;;1.55;0.50;;;;;;;13.74;96.01;100060.63;5055523;28;20032;-65
2023/10/22 07:39:49;;;;;;;1.10;0.60;;;;;;;13.75;95.69;100057.97;5057959;28;20575;-64
2023/10/22 07:42:15;;;;;;;1.10;0.52;;;;;;;13.78;95.59;100067.41;5054663;28;20103;-65
2023/10/22 07:44:40;;;;;;;1.48;0.75;;;;;;;13.76;97.34;100079.59;5056699;28;20032;-64
2023/10/22 07:47:05;;;;;;;2.80;1.67;;;;;;;13.61;99.96;100080.94;5054156;28;20048;-65
2023/10/22 07:49:31;;;;;;;2.15;1.27;;;;;;;13.50;100.00;100088.22;5052739;28;20036;-64
2023/10/22 07:51:56;;;;;;;3.10;2.17;;;;;;;13.43;100.00;100091.91;5056324;28;20037;-64
2023/10/22 07:54:21;;;;;;;1.10;0.75;;;;;;;13.30;100.00;100091.41;5054941;28;20021;-65
2023/10/22 07:56:47;;;;;;;4.80;2.80;;;;;;;13.29;100.00;100094.06;5056503;28;20026;-65
2023/10/22 07:59:12;;;;;;;10.10;5.20;;;;;;;13.24;100.00;100101.13;5056985;28;20043;-65
2023/10/22 08:01:37;;;;;;;10.52;6.72;;;;;;;13.24;100.00;100101.97;5053481;28;20044;-65
2023/10/22 08:04:03;;;;;;;9.13;4.97;;;;;;;13.25;100.00;100098.50;5055654;28;20056;-65
2023/10/22 08:06:28;;;;;;;3.72;2.35;;;;;;;13.20;100.00;100112.50;5058568;28;20115;-64
2023/10/22 08:08:57;;;;;;;30.48;13.00;;;;;;;13.17;100.00;100116.06;5058982;28;20141;-65
2023/10/22 08:11:22;;;;;;;35.78;16.00;;;;;;;13.24;100.00;100116.69;5033603;28;20044;-64
2023/10/22 08:13:48;;;;;;;23.73;9.50;;;;;;;13.25;100.00;100119.25;5062538;28;20040;-64
2023/10/22 08:16:13;;;;;;;6.60;4.35;;;;;;;13.22;100.00;100124.53;5035296;28;20037;-65
2023/10/22 08:18:38;;;;;;;3.78;2.20;;;;;;;13.24;100.00;100127.94;5064123;28;20055;-64
2023/10/22 08:21:06;;;;;;;2.55;2.35;;;;;;;13.21;100.00;100130.63;5057326;28;20032;-65
2023/10/22 08:23:32;;;;;;;1.73;1.20;;;;;;;13.19;100.00;100134.16;5055410;28;20600;-65
2023/10/22 08:25:58;;;;;;;2.72;0.90;;;;;;;13.22;100.00;100134.91;5055238;28;20102;-66
2023/10/22 08:28:23;;;;;;;0.77;0.70;;;;;;;13.18;100.00;100138.50;5060587;28;20041;-65
2023/10/22 08:30:50;;;;;;;1.38;1.10;;;;;;;13.19;100.00;100139.34;5066521;28;20037;-65
2023/10/22 08:33:16;;;;;;;1.77;1.38;;;;;;;13.22;100.00;100140.13;5060454;28;20020;-65
2023/10/22 08:35:42;;;;;;;2.33;1.52;;;;;;;13.23;100.00;100146.16;5053908;28;20025;-65
2023/10/22 08:38:07;;;;;;;2.63;2.05;;;;;;;13.25;100.00;100147.81;5062240;28;20040;-65
2023/10/22 08:40:37;;;;;;;2.35;2.00;;;;;;;13.23;100.00;100149.63;5061424;28;20598;-65
2023/10/22 08:43:24;;;;;;;3.20;1.60;;;;;;;13.18;100.00;100161.84;5049446;28;20051;-65
2023/10/22 08:45:50;;;;;;;4.80;1.88;;;;;;;13.20;100.00;100157.47;5061886;28;20036;-65
2023/10/22 08:48:17;;;;;;;1.40;1.15;;;;;;;13.27;100.00;100159.00;5060076;28;20506;-65
2023/10/22 08:50:44;;;;;;;3.05;1.90;;;;;;;13.28;100.00;100162.44;5057006;28;20512;-67
2023/10/22 08:53:12;;;;;;;2.45;1.58;;;;;;;13.26;100.00;100166.84;5053462;28;20052;-64
2023/10/22 08:55:49;;;;;;;3.65;1.95;;;;;;;13.27;100.00;100171.09;5041098;28;20044;-64
2023/10/22 08:58:17;;;;;;;2.97;1.30;;;;;;;13.25;100.00;100170.31;5056843;28;20159;-64
2023/10/22 09:00:47;;;;;;;2.90;1.70;;;;;;;13.25;100.00;100170.31;5053701;28;20713;-65
2023/10/22 09:03:14;;;;;;;4.45;1.83;;;;;;;13.24;100.00;100181.59;5054027;28;20031;-64
2023/10/22 09:05:40;;;;;;;1.70;1.20;;;;;;;13.17;100.00;100180.94;5053749;28;20422;-65
2023/10/22 09:08:05;;;;;;;2.58;1.80;;;;;;;13.18;100.00;100184.38;5061238;28;20048;-65
2023/10/22 09:10:32;;;;;;;3.72;1.83;;;;;;;13.15;100.00;100200.03;5055135;28;20067;-65
2023/10/22 09:13:07;;;;;;;4.25;1.98;;;;;;;13.11;100.00;100196.66;5055318;28;20457;-64
2023/10/22 09:15:40;;;;;;;3.15;1.40;;;;;;;13.12;100.00;100197.53;5054805;28;20127;-64
2023/10/22 09:18:05;;;;;;;3.10;1.40;;;;;;;13.09;100.00;100205.38;5055398;28;20021;-64
2023/10/22 09:20:34;;;;;;;4.20;1.50;;;;;;;13.12;100.00;100195.75;5052406;28;20736;-65
2023/10/22 09:23:19;;;;;;;3.55;1.20;;;;;;;13.12;100.00;100200.94;5054065;28;20042;-65
2023/10/22 09:25:52;;;;;;;1.65;0.80;;;;;;;13.19;100.00;100206.81;5050334;28;20076;-64
2023/10/22 09:28:24;;;;;;;1.52;0.90;;;;;;;13.25;100.00;100210.09;5048135;28;20036;-65
2023/10/22 09:31:05;;;;;;;2.15;1.23;;;;;;;13.34;100.00;100207.25;5054977;28;20052;-65
2023/10/22 09:33:33;;;;;;;2.05;0.90;;;;;;;13.35;100.00;100208.97;5054982;28;20028;-66
2023/10/22 09:36:03;;;;;;;1.92;1.10;;;;;;;13.31;100.00;100209.94;5065263;28;20471;-65
2023/10/22 09:38:51;;;;;;;2.03;1.10;;;;;;;13.21;100.00;100208.47;5057601;28;20130;-64
2023/10/22 09:41:31;;;;;;;4.25;1.55;;;;;;;13.26;100.00;100214.41;5056941;28;20701;-65
2023/10/22 09:44:00;;;;;;;4.45;2.25;;;;;;;13.31;100.00;100216.84;5054932;28;20460;-65
2023/10/22 09:46:32;;;;;;;3.63;1.48;;;;;;;13.28;100.00;100216.94;5057320;28;20122;-66
2023/10/22 09:48:59;;;;;;;5.35;1.70;;;;;;;13.33;100.00;100213.31;5060173;28;20069;-66
2023/10/22 09:51:31;;;;;;;2.25;1.20;;;;;;;13.35;100.00;100214.16;5056599;28;20047;-67
2023/10/22 09:53:58;;;;;;;1.80;1.13;;;;;;;13.35;100.00;100213.28;5058353;28;20102;-66
2023/10/22 09:56:23;;;;;;;2.30;1.20;;;;;;;13.41;100.00;100219.16;5055715;28;20443;-67
2023/10/22 09:58:56;;;;;;;4.57;1.88;;;;;;;13.53;100.00;100223.16;5059830;28;20037;-66
2023/10/22 10:01:24;;;;;;;2.58;1.70;;;;;;;13.52;100.00;100226.63;5059889;28;20072;-67
2023/10/22 10:03:51;;;;;;;3.90;1.70;;;;;;;13.48;100.00;100228.47;5053968;28;20037;-68
2023/10/22 10:06:17;;;;;;;3.05;1.40;;;;;;;13.51;100.00;100220.59;5062685;28;20056;-66
2023/10/22 10:08:43;;;;;;;3.50;1.73;;;;;;;13.54;100.00;100220.50;5059769;28;20561;-66
2023/10/22 10:11:10;;;;;;;2.10;1.80;;;;;;;13.62;100.00;100219.44;5061523;28;20048;-68
2023/10/22 10:13:35;;;;;;;3.30;1.60;;;;;;;13.52;100.00;100224.03;5058388;28;20147;-67
2023/10/22 10:16:05;;;;;;;3.80;3.00;;;;;;;13.75;100.00;100225.94;5062605;28;20051;-66
2023/10/22 10:18:58;;;;;;;3.40;1.80;;;;;;;13.82;100.00;100233.53;5062356;28;20024;-65
2023/10/22 10:21:33;;;;;;;1.85;1.52;;;;;;;13.89;100.00;100240.22;5058913;28;20098;-66
2023/10/22 10:24:14;;;;;;;2.17;1.92;;;;;;;14.02;100.00;100241.56;5054091;28;20031;-66
2023/10/22 10:26:39;;;;;;;5.15;2.80;;;;;;;14.02;100.00;100240.72;5055847;28;20040;-66
2023/10/22 10:29:05;;;;;;;6.65;4.32;;;;;;;14.07;100.00;100249.22;5039552;28;20530;-65
2023/10/22 10:31:30;;;;;;;2.58;1.83;;;;;;;14.03;100.00;100250.22;5059944;28;20041;-66
2023/10/22 10:34:00;;;;;;;4.70;2.38;;;;;;;14.12;100.00;100247.34;5054121;28;20434;-66
2023/10/22 10:36:27;;;;;;;16.23;8.80;;;;;;;14.19;100.00;100254.03;5039540;28;20491;-65
2023/10/22 10:38:53;;;;;;;8.73;5.18;;;;;;;14.27;100.00;100252.06;5060532;28;20020;-65
2023/10/22 10:41:53;;;;;;;3.50;2.53;;;;;;;14.24;100.00;100249.56;5060514;28;20045;-65
2023/10/22 10:44:18;;;;;;;5.70;3.50;;;;;;;14.24;100.00;100254.75;5056564;28;20033;-65
2023/10/22 10:46:43;;;;;;;6.47;3.63;;;;;;;14.32;100.00;100257.09;5061534;28;20097;-66
2023/10/22 10:49:09;;;;;;;4.72;1.88;;;;;;;14.35;100.00;100255.25;5058674;28;20041;-65
2023/10/22 10:51:34;;;;;;;2.95;2.10;;;;;;;14.41;100.00;100256.84;5062587;28;20131;-66
2023/10/22 10:54:12;;;;;;;3.13;1.70;;;;;;;14.37;100.00;100256.06;5062096;28;20529;-65
2023/10/22 10:56:47;;;;;;;10.00;5.07;;;;;;;14.35;100.00;100257.00;5057191;28;20044;-65
2023/10/22 10:59:37;;;;;;;11.27;6.38;;;;;;;14.24;100.00;100254.75;5057303;28;20036;-65
2023/10/22 11:02:10;;;;;;;4.47;2.05;;;;;;;14.22;100.00;100253.94;5060618;28;20902;-65
2023/10/22 11:04:37;;;;;;;13.20;5.90;;;;;;;14.17;100.00;100255.84;5055953;28;20047;-65
2023/10/22 11:07:03;;;;;;;15.07;6.43;;;;;;;14.03;100.00;100258.88;5056340;28;20040;-66
2023/10/22 11:09:31;;;;;;;4.20;2.00;;;;;;;13.97;100.00;100258.19;5059002;28;20035;-66
2023/10/22 11:12:05;;;;;;;14.48;7.13;;;;;;;13.98;100.00;100259.88;5041074;28;20032;-66
2023/10/22 11:14:35;;;;;;;2.08;1.10;;;;;;;13.88;100.00;100255.88;5059520;28;20166;-66
2023/10/22 11:17:02;;;;;;;5.82;2.50;;;;;;;13.94;100.00;100268.69;5061294;28;20610;-66
2023/10/22 11:19:29;;;;;;;2.35;1.17;;;;;;;14.00;100.00;100264.16;5055173;28;20032;-66
2023/10/22 11:21:55;;;;;;;1.92;1.00;;;;;;;14.05;100.00;100264.00;5058306;28;20063;-66
2023/10/22 11:24:33;;;;;;;2.30;0.88;;;;;;;14.03;100.00;100265.81;5055245;28;20499;-67
2023/10/22 11:27:02;;;;;;;8.65;4.32;;;;;;;14.15;100.00;100268.03;5050810;28;20045;-66